createdAt,value
2023-06-10T00:02:25.674Z,45.00
2023-06-10T00:05:32.995Z,44.70
2023-06-10T00:08:41.415Z,44.80
2023-06-10T00:11:48.184Z,45.00
2023-06-10T00:14:55.270Z,45.00
2023-06-10T00:18:02.826Z,44.80
2023-06-10T00:21:13.185Z,44.70
2023-06-10T00:24:18.724Z,44.60
2023-06-10T00:27:25.132Z,44.50
2023-06-10T00:30:35.999Z,44.50
2023-06-10T00:33:41.893Z,44.50
2023-06-10T00:36:49.262Z,44.20
2023-06-10T00:39:56.748Z,44.20
2023-06-10T00:43:02.639Z,44.20
2023-06-10T00:46:09.014Z,44.70
2023-06-10T00:49:18.536Z,44.30
2023-06-10T00:52:24.608Z,43.90
2023-06-10T00:55:33.013Z,43.90
2023-06-10T00:58:43.929Z,44.00
2023-06-10T01:01:50.416Z,44.00
2023-06-10T01:04:58.608Z,43.90
2023-06-10T01:08:06.104Z,43.80
2023-06-10T01:11:12.086Z,43.70
2023-06-10T01:14:19.921Z,43.80
2023-06-10T01:17:25.839Z,43.70
2023-06-10T01:20:35.622Z,43.70
2023-06-10T01:23:41.791Z,43.70
2023-06-10T01:26:48.238Z,43.70
2023-06-10T01:29:56.740Z,43.80
2023-06-10T01:33:04.527Z,43.70
2023-06-10T01:36:10.748Z,43.60
2023-06-10T01:39:16.791Z,43.40
2023-06-10T01:42:22.666Z,43.60
2023-06-10T01:45:29.461Z,43.60
2023-06-10T01:48:35.766Z,43.60
2023-06-10T01:51:44.447Z,43.60
2023-06-10T01:54:53.272Z,43.60
2023-06-10T01:58:01.770Z,43.60
2023-06-10T02:01:08.948Z,43.60
2023-06-10T02:04:15.252Z,43.90
2023-06-10T02:07:21.495Z,44.20
2023-06-10T02:10:27.867Z,44.40
2023-06-10T02:13:33.609Z,45.00
2023-06-10T02:16:41.274Z,44.40
2023-06-10T02:19:48.732Z,44.30
2023-06-10T02:22:58.659Z,44.20
2023-06-10T02:26:04.686Z,44.20
2023-06-10T02:29:10.388Z,44.10
2023-06-10T02:32:17.847Z,44.10
2023-06-10T02:35:25.052Z,44.00
2023-06-10T02:38:31.387Z,44.00
2023-06-10T02:41:38.487Z,44.00
2023-06-10T02:44:44.840Z,44.20
2023-06-10T02:47:52.530Z,44.10
2023-06-10T02:50:58.672Z,44.60
2023-06-10T02:54:04.444Z,44.20
2023-06-10T02:57:15.954Z,44.10
2023-06-10T03:00:23.271Z,44.10
2023-06-10T03:03:32.822Z,44.00
2023-06-10T03:06:40.123Z,44.00
2023-06-10T03:09:50.526Z,44.00
2023-06-10T03:12:56.468Z,44.00
2023-06-10T03:16:02.424Z,44.10
2023-06-10T03:19:08.393Z,44.00
2023-06-10T03:22:14.448Z,44.00
2023-06-10T03:25:22.708Z,44.10
2023-06-10T03:28:28.831Z,44.20
2023-06-10T03:31:34.399Z,44.10
2023-06-10T03:34:40.406Z,44.20
2023-06-10T03:37:48.489Z,44.00
2023-06-10T03:40:55.655Z,44.20
2023-06-10T03:44:02.238Z,44.20
2023-06-10T03:47:14.449Z,44.70
2023-06-10T03:50:20.880Z,44.20
2023-06-10T03:53:28.991Z,44.60
2023-06-10T03:56:35.642Z,44.60
2023-06-10T03:59:41.647Z,44.70
2023-06-10T04:02:52.852Z,44.80
2023-06-10T04:06:00.877Z,45.10
2023-06-10T04:09:08.931Z,44.90
2023-06-10T04:12:16.020Z,45.00
2023-06-10T04:15:23.746Z,45.10
2023-06-10T04:18:32.394Z,45.00
2023-06-10T04:21:39.385Z,45.00
2023-06-10T04:24:49.150Z,44.80
2023-06-10T04:27:55.981Z,44.90
2023-06-10T04:31:02.273Z,45.00
2023-06-10T04:34:09.353Z,44.90
2023-06-10T04:37:16.725Z,45.00
2023-06-10T04:40:23.220Z,45.00
2023-06-10T04:43:29.894Z,44.90
2023-06-10T04:46:36.609Z,44.90
2023-06-10T04:49:44.235Z,44.80
2023-06-10T04:52:51.145Z,44.70
2023-06-10T04:55:56.812Z,44.70
2023-06-10T04:59:03.821Z,44.60
2023-06-10T05:02:12.708Z,44.60
2023-06-10T05:05:20.805Z,44.50
2023-06-10T05:08:29.392Z,44.40
2023-06-10T05:11:35.255Z,44.40
2023-06-10T05:14:41.484Z,44.50
2023-06-10T05:21:01.813Z,44.40
2023-06-10T05:24:08.208Z,44.40
2023-06-10T05:27:15.825Z,44.50
2023-06-10T05:30:26.593Z,44.40
2023-06-10T05:33:32.506Z,44.40
2023-06-10T05:36:40.435Z,44.20
2023-06-10T05:39:47.152Z,44.20
2023-06-10T05:42:54.740Z,44.40
2023-06-10T05:46:00.604Z,44.30
2023-06-10T05:49:06.445Z,44.20
2023-06-10T05:52:14.214Z,44.00
2023-06-10T05:55:22.359Z,44.10
2023-06-10T05:58:30.521Z,44.20
2023-06-10T06:01:38.272Z,44.10
2023-06-10T06:04:45.813Z,44.00
2023-06-10T06:07:53.657Z,44.00
2023-06-10T06:11:02.780Z,44.10
2023-06-10T06:14:10.562Z,44.10
2023-06-10T06:17:19.140Z,44.00
2023-06-10T06:20:25.390Z,43.90
2023-06-10T06:23:32.118Z,43.80
2023-06-10T06:26:38.114Z,44.00
2023-06-10T06:29:43.725Z,44.00
2023-06-10T06:32:50.771Z,43.80
2023-06-10T06:36:03.565Z,43.80
2023-06-10T06:39:11.247Z,43.80
2023-06-10T06:42:18.684Z,44.00
2023-06-10T06:45:24.854Z,43.80
2023-06-10T06:48:33.892Z,43.70
2023-06-10T06:51:40.456Z,43.70
2023-06-10T06:54:46.222Z,43.80
2023-06-10T06:57:56.157Z,44.00
2023-06-10T07:01:02.001Z,43.90
2023-06-10T07:04:11.534Z,43.80
2023-06-10T07:07:17.150Z,43.60
2023-06-10T07:10:23.572Z,43.70
2023-06-10T07:13:29.402Z,43.70
2023-06-10T07:16:37.618Z,43.70
2023-06-10T07:19:45.182Z,43.60
2023-06-10T07:22:51.120Z,43.50
2023-06-10T07:25:57.851Z,44.10
2023-06-10T07:29:06.959Z,43.60
2023-06-10T07:32:13.816Z,43.60
2023-06-10T07:35:20.432Z,43.50
2023-06-10T07:38:26.521Z,43.60
2023-06-10T07:41:32.197Z,43.60
2023-06-10T07:44:39.409Z,44.20
2023-06-10T07:47:45.849Z,43.50
2023-06-10T07:50:54.416Z,43.50
2023-06-10T07:54:02.172Z,43.50
2023-06-10T07:57:10.643Z,43.50
2023-06-10T08:00:18.884Z,43.60
2023-06-10T08:03:26.612Z,43.50
2023-06-10T08:06:34.126Z,43.50
2023-06-10T08:09:40.280Z,43.50
2023-06-10T08:12:47.480Z,43.60
2023-06-10T08:15:54.792Z,43.50
2023-06-10T08:19:01.620Z,43.50
2023-06-10T08:22:08.696Z,43.50
2023-06-10T08:25:15.152Z,43.50
2023-06-10T08:28:22.176Z,43.50
2023-06-10T08:31:28.187Z,43.50
2023-06-10T08:34:38.085Z,43.40
2023-06-10T08:37:46.239Z,43.40
2023-06-10T08:40:52.168Z,43.40
2023-06-10T08:43:59.498Z,43.50
2023-06-10T08:47:11.692Z,43.50
2023-06-10T08:50:19.302Z,43.50
2023-06-10T08:53:26.768Z,43.40
2023-06-10T08:56:36.429Z,43.40
2023-06-10T08:59:45.062Z,43.40
2023-06-10T09:02:54.606Z,43.40
2023-06-10T09:06:03.957Z,43.50
2023-06-10T09:09:10.791Z,43.40
2023-06-10T09:12:18.471Z,43.60
2023-06-10T09:15:26.483Z,43.50
2023-06-10T09:18:32.788Z,43.60
2023-06-10T09:21:38.512Z,43.50
2023-06-10T09:24:46.838Z,43.50
2023-06-10T09:27:58.333Z,43.50
2023-06-10T09:31:10.617Z,43.50
2023-06-10T09:34:20.993Z,43.50
2023-06-10T09:37:28.604Z,43.50
2023-06-10T09:40:37.248Z,43.50
2023-06-10T09:43:43.722Z,43.50
2023-06-10T09:46:50.231Z,43.50
2023-06-10T09:49:56.726Z,43.50
2023-06-10T09:53:04.067Z,43.50
2023-06-10T09:56:11.751Z,43.40
2023-06-10T09:59:17.607Z,43.40
2023-06-10T10:02:26.740Z,43.40
2023-06-10T10:05:33.562Z,43.30
2023-06-10T10:08:40.061Z,43.40
2023-06-10T10:11:45.639Z,43.40
2023-06-10T10:14:53.376Z,43.30
2023-06-10T10:18:01.409Z,43.30
2023-06-10T10:21:11.245Z,43.30
2023-06-10T10:24:20.081Z,43.30
2023-06-10T10:27:27.250Z,43.40
2023-06-10T10:30:34.313Z,43.40
2023-06-10T10:33:42.204Z,43.40
2023-06-10T10:36:49.514Z,43.40
2023-06-10T10:39:57.244Z,43.40
2023-06-10T10:43:06.558Z,43.30
2023-06-10T10:46:14.831Z,43.30
2023-06-10T10:49:20.752Z,43.20
2023-06-10T10:52:27.634Z,43.30
2023-06-10T10:55:34.094Z,43.20
2023-06-10T10:58:40.664Z,43.20
2023-06-10T11:01:48.094Z,43.20
2023-06-10T11:04:54.107Z,43.20
2023-06-10T11:08:02.273Z,43.30
2023-06-10T11:11:23.750Z,43.40
2023-06-10T11:14:38.475Z,43.30
2023-06-10T11:18:02.876Z,43.20
2023-06-10T11:21:08.817Z,43.20
2023-06-10T11:24:18.423Z,43.30
2023-06-10T11:27:29.041Z,43.30
2023-06-10T11:30:36.413Z,43.20
2023-06-10T11:33:43.122Z,43.20
2023-06-10T11:36:48.840Z,43.20
2023-06-10T11:39:56.080Z,43.40
2023-06-10T11:43:02.719Z,43.60
2023-06-10T11:46:10.216Z,43.50
2023-06-10T11:49:18.800Z,43.60
2023-06-10T11:52:28.940Z,43.50
2023-06-10T11:55:53.577Z,43.70
2023-06-10T11:59:03.915Z,43.80
2023-06-10T12:02:11.868Z,43.90
2023-06-10T12:05:19.931Z,43.90
2023-06-10T12:08:28.297Z,43.90
2023-06-10T12:11:35.710Z,43.90
2023-06-10T12:15:00.232Z,43.80
2023-06-10T12:18:10.323Z,43.70
2023-06-10T12:21:27.570Z,43.90
2023-06-10T12:24:33.567Z,43.80
2023-06-10T12:27:44.300Z,43.80
2023-06-10T12:30:51.520Z,43.50
2023-06-10T12:34:11.361Z,43.40
2023-06-10T12:37:19.384Z,43.40
2023-06-10T12:40:27.701Z,44.00
2023-06-10T12:43:37.071Z,43.40
2023-06-10T12:46:43.603Z,43.40
2023-06-10T12:49:50.800Z,43.30
2023-06-10T12:52:58.047Z,43.20
2023-06-10T12:56:04.720Z,43.10
2023-06-10T12:59:11.928Z,43.00
2023-06-10T13:02:21.947Z,43.00
2023-06-10T13:05:28.074Z,43.10
2023-06-10T13:08:35.006Z,43.10
2023-06-10T13:11:42.822Z,43.00
2023-06-10T13:14:48.524Z,43.10
2023-06-10T13:17:56.664Z,43.00
2023-06-10T13:21:04.145Z,43.10
2023-06-10T13:24:10.529Z,42.90
2023-06-10T13:27:20.712Z,42.90
2023-06-10T13:30:30.257Z,42.80
2023-06-10T13:33:36.003Z,43.30
2023-06-10T13:36:42.873Z,42.90
2023-06-10T13:39:52.212Z,42.70
2023-06-10T13:42:58.458Z,42.60
2023-06-10T13:46:05.984Z,42.60
2023-06-10T13:49:11.994Z,42.60
2023-06-10T13:52:20.320Z,42.80
2023-06-10T13:55:30.056Z,42.50
2023-06-10T13:58:39.088Z,42.40
2023-06-10T14:01:47.772Z,42.40
2023-06-10T14:04:55.123Z,42.40
2023-06-10T14:08:03.366Z,42.60
2023-06-10T14:11:09.150Z,42.30
2023-06-10T14:14:16.535Z,42.10
2023-06-10T14:17:23.535Z,42.20
2023-06-10T14:20:31.380Z,42.20
2023-06-10T14:23:40.134Z,42.20
2023-06-10T14:26:47.780Z,42.10
2023-06-10T14:29:55.854Z,42.00
2023-06-10T14:33:03.985Z,41.90
2023-06-10T14:36:12.661Z,42.00
2023-06-10T14:39:19.309Z,41.90
2023-06-10T14:42:28.796Z,41.80
2023-06-10T14:45:36.418Z,41.70
2023-06-10T14:48:43.661Z,41.70
2023-06-10T14:51:51.485Z,41.80
2023-06-10T14:55:00.739Z,41.70
2023-06-10T14:58:10.254Z,41.60
2023-06-10T15:01:16.054Z,41.90
2023-06-10T15:04:24.460Z,41.80
2023-06-10T15:07:30.090Z,41.80
2023-06-10T15:10:37.728Z,41.50
2023-06-10T15:13:46.857Z,41.40
2023-06-10T15:16:54.881Z,41.50
2023-06-10T15:20:00.720Z,41.60
2023-06-10T15:23:08.707Z,41.60
2023-06-10T15:26:18.428Z,41.30
2023-06-10T15:29:26.087Z,41.30
2023-06-10T15:32:31.857Z,41.50
2023-06-10T15:35:37.929Z,41.60
2023-06-10T15:38:43.697Z,41.50
2023-06-10T15:41:55.364Z,41.30
2023-06-10T15:45:08.115Z,41.20
2023-06-10T15:48:17.520Z,41.30
2023-06-10T15:51:26.887Z,41.50
2023-06-10T15:54:36.889Z,41.50
2023-06-10T15:57:47.936Z,41.70
2023-06-10T16:00:55.181Z,41.20
2023-06-10T16:04:03.574Z,41.30
2023-06-10T16:07:11.380Z,41.60
2023-06-10T16:10:19.157Z,41.40
2023-06-10T16:13:28.574Z,41.20
2023-06-10T16:16:34.198Z,41.20
2023-06-10T16:19:40.565Z,41.40
2023-06-10T16:22:50.731Z,41.40
2023-06-10T16:25:59.416Z,41.80
2023-06-10T16:29:12.139Z,41.20
2023-06-10T16:32:24.349Z,41.20
2023-06-10T16:35:34.630Z,41.40
2023-06-10T16:38:44.600Z,41.30
2023-06-10T16:41:55.654Z,41.10
2023-06-10T16:45:06.776Z,41.10
2023-06-10T16:48:15.770Z,41.20
2023-06-10T16:51:24.222Z,41.40
2023-06-10T16:54:33.871Z,41.30
2023-06-10T16:57:39.927Z,41.20
2023-06-10T17:00:47.581Z,41.20
2023-06-10T17:03:56.073Z,41.30
2023-06-10T17:07:05.452Z,41.90
2023-06-10T17:10:15.092Z,41.30
2023-06-10T17:13:23.534Z,41.70
2023-06-10T17:16:32.138Z,41.20
2023-06-10T17:19:39.589Z,41.40
2023-06-10T17:22:49.708Z,41.30
2023-06-10T17:26:01.019Z,41.20
2023-06-10T17:29:09.286Z,41.10
2023-06-10T17:32:20.556Z,41.20
2023-06-10T17:35:28.615Z,41.40
2023-06-10T17:38:38.331Z,41.40
2023-06-10T17:41:49.171Z,41.10
2023-06-10T17:44:57.472Z,41.70
2023-06-10T17:48:04.710Z,41.30
2023-06-10T17:51:13.814Z,41.60
2023-06-10T17:54:26.408Z,41.30
2023-06-10T17:57:35.451Z,41.20
2023-06-10T18:00:44.733Z,41.40
2023-06-10T18:03:56.057Z,41.40
2023-06-10T18:07:04.902Z,41.40
2023-06-10T18:10:17.657Z,41.20
2023-06-10T18:13:27.141Z,41.20
2023-06-10T18:16:38.165Z,41.30
2023-06-10T18:19:46.278Z,41.40
2023-06-10T18:22:58.331Z,41.50
2023-06-10T18:26:08.127Z,41.20
2023-06-10T18:29:17.975Z,42.00
2023-06-10T18:32:27.427Z,41.90
2023-06-10T18:35:36.121Z,42.20
2023-06-10T18:38:44.193Z,41.60
2023-06-10T18:41:54.453Z,41.50
2023-06-10T18:45:03.442Z,41.30
2023-06-10T18:48:13.154Z,41.40
2023-06-10T18:51:22.091Z,41.60
2023-06-10T18:54:30.447Z,41.00
2023-06-10T18:57:40.809Z,41.50
2023-06-10T19:00:51.651Z,41.70
2023-06-10T19:04:04.424Z,41.60
2023-06-10T19:07:17.231Z,41.70
2023-06-10T19:10:26.829Z,41.50
2023-06-10T19:13:35.672Z,41.50
2023-06-10T19:16:44.929Z,41.50
2023-06-10T19:19:54.909Z,41.50
2023-06-10T19:23:05.110Z,41.60
2023-06-10T19:26:12.688Z,40.60
2023-06-10T19:29:23.718Z,40.40
2023-06-10T19:32:33.290Z,40.00
2023-06-10T19:35:44.785Z,40.20
2023-06-10T19:38:53.535Z,39.80
2023-06-10T19:42:04.456Z,40.50
2023-06-10T19:45:15.454Z,40.60
2023-06-10T19:48:23.197Z,40.60
2023-06-10T19:51:31.641Z,40.90
2023-06-10T19:54:39.316Z,40.70
2023-06-10T19:57:48.284Z,40.70
2023-06-10T20:00:58.563Z,40.50
2023-06-10T20:04:07.880Z,41.10
2023-06-10T20:07:14.807Z,41.20
2023-06-10T20:10:21.644Z,40.70
2023-06-10T20:13:29.150Z,40.50
2023-06-10T20:16:37.955Z,40.20
2023-06-10T20:19:47.260Z,39.90
2023-06-10T20:22:58.337Z,39.70
2023-06-10T20:26:07.777Z,40.50
2023-06-10T20:29:17.383Z,40.60
2023-06-10T20:32:26.990Z,40.60
2023-06-10T20:35:35.488Z,40.60
2023-06-10T20:38:43.480Z,40.50
2023-06-10T20:41:50.920Z,40.40
2023-06-10T20:44:59.918Z,40.50
2023-06-10T20:48:09.424Z,40.50
2023-06-10T20:51:18.516Z,40.70
2023-06-10T20:54:29.319Z,41.10
2023-06-10T20:57:38.771Z,40.30
2023-06-10T21:00:47.963Z,40.10
2023-06-10T21:03:57.686Z,39.90
2023-06-10T21:07:07.482Z,39.80
2023-06-10T21:10:15.228Z,39.60
2023-06-10T21:13:22.987Z,40.30
2023-06-10T21:16:32.179Z,40.40
2023-06-10T21:19:40.292Z,40.40
2023-06-10T21:22:48.569Z,40.30
2023-06-10T21:25:56.722Z,40.20
2023-06-10T21:29:02.699Z,40.70
2023-06-10T21:32:12.578Z,40.10
2023-06-10T21:35:21.197Z,40.30
2023-06-10T21:38:30.600Z,40.10
2023-06-10T21:41:38.276Z,39.40
2023-06-10T21:44:47.690Z,39.20
2023-06-10T21:48:00.438Z,39.20
2023-06-10T21:51:08.279Z,39.20
2023-06-10T21:54:18.296Z,39.40
2023-06-10T21:57:26.368Z,39.80
2023-06-10T22:00:35.790Z,39.80
2023-06-10T22:03:46.550Z,39.80
2023-06-10T22:06:56.425Z,39.80
2023-06-10T22:10:06.914Z,39.60
2023-06-10T22:13:14.280Z,39.60
2023-06-10T22:16:22.228Z,39.60
2023-06-10T22:19:32.512Z,39.60
2023-06-10T22:22:42.494Z,39.10
2023-06-10T22:25:50.359Z,38.90
2023-06-10T22:28:59.201Z,38.90
2023-06-10T22:32:09.837Z,38.80
2023-06-10T22:35:21.408Z,39.30
2023-06-10T22:38:30.696Z,39.50
2023-06-10T22:41:39.144Z,39.80
2023-06-10T22:44:48.738Z,39.50
2023-06-10T22:48:00.301Z,39.50
2023-06-10T22:51:07.248Z,39.60
2023-06-10T22:54:14.180Z,39.60
2023-06-10T22:57:22.229Z,39.40
2023-06-10T23:00:29.902Z,39.20
2023-06-10T23:03:40.735Z,39.00
2023-06-10T23:06:51.582Z,39.00
2023-06-10T23:10:01.108Z,39.40
2023-06-10T23:13:10.080Z,39.50
2023-06-10T23:16:20.127Z,39.50
2023-06-10T23:19:30.365Z,39.40
2023-06-10T23:22:39.260Z,39.40
2023-06-10T23:25:48.462Z,39.30
2023-06-10T23:28:59.065Z,39.20
2023-06-10T23:32:10.918Z,39.90
2023-06-10T23:35:20.362Z,39.30
2023-06-10T23:38:31.569Z,39.70
2023-06-10T23:41:40.327Z,39.50
2023-06-10T23:44:49.969Z,39.00
2023-06-10T23:47:56.874Z,38.70
2023-06-10T23:51:06.451Z,38.70
2023-06-10T23:54:16.503Z,38.70
2023-06-10T23:57:27.315Z,39.20
